Time;durP1;ratioP1;P1;durP2;ratioP2;P2;SDS_P1;SDS_P2;PMS_P1;PMS_P2;Temp;Humidity;BMP_temperature;BMP_pressure;BME280_temperature;BME280_humidity;BME280_pressure;Samples;Min_cycle;Max_cycle;Signal;HPM_P1;HPM_P2
2024/01/30 00:02:23;;;;;;;10.20;4.78;;;;;;;;;;5065220;28;20051;-84
2024/01/30 00:05:08;;;;;;;8.50;4.03;;;;;;;;;;5071245;28;20513;-83
2024/01/30 00:07:53;;;;;;;8.27;4.53;;;;;;;;;;5051667;28;20024;-83
2024/01/30 00:10:38;;;;;;;7.13;4.53;;;;;;;;;;5052995;28;20027;-82
2024/01/30 00:13:23;;;;;;;9.55;4.53;;;;;;;;;;5052229;28;20024;-82
2024/01/30 00:16:19;;;;;;;7.80;4.18;;;;;;;;;;5047899;28;20118;-83
2024/01/30 00:19:04;;;;;;;11.23;4.78;;;;;;;;;;5053450;28;20109;-82
2024/01/30 00:21:50;;;;;;;12.07;3.90;;;;;;;;;;5074446;28;20008;-82
2024/01/30 00:24:35;;;;;;;11.60;5.07;;;;;;;;;;5048759;28;20028;-82
2024/01/30 00:27:20;;;;;;;10.63;4.97;;;;;;;;;;5047539;28;20028;-82
2024/01/30 00:30:06;;;;;;;9.25;4.28;;;;;;;;;;5049390;28;20048;-82
2024/01/30 00:32:52;;;;;;;8.60;4.20;;;;;;;;;;5054064;28;20060;-83
2024/01/30 00:35:37;;;;;;;9.48;4.80;;;;;;;;;;5050289;28;20089;-82
2024/01/30 00:38:22;;;;;;;12.95;5.30;;;;;;;;;;5045099;28;20021;-82
2024/01/30 00:41:08;;;;;;;9.45;4.75;;;;;;;;;;5050786;28;20031;-83
2024/01/30 00:43:53;;;;;;;10.02;5.40;;;;;;;;;;5051286;28;20040;-83
2024/01/30 00:46:38;;;;;;;7.90;4.28;;;;;;;;;;5059189;28;20044;-83
2024/01/30 00:49:23;;;;;;;9.85;4.85;;;;;;;;;;5076724;28;20115;-83
2024/01/30 00:52:09;;;;;;;9.10;4.75;;;;;;;;;;5043812;28;20024;-82
2024/01/30 00:54:54;;;;;;;7.50;4.28;;;;;;;;;;5045270;28;20046;-82
2024/01/30 00:57:39;;;;;;;8.15;4.05;;;;;;;;;;5048801;28;20024;-82
2024/01/30 01:00:28;;;;;;;11.45;5.13;;;;;;;;;;5047519;28;20028;-82
2024/01/30 01:03:14;;;;;;;7.13;4.60;;;;;;;;;;5049322;28;20055;-83
2024/01/30 01:05:59;;;;;;;8.50;4.70;;;;;;;;;;5049557;28;20031;-82
2024/01/30 01:08:44;;;;;;;10.30;5.07;;;;;;;;;;5058543;28;20101;-82
2024/01/30 01:11:29;;;;;;;10.73;4.50;;;;;;;;;;5065163;28;20096;-82
2024/01/30 01:14:14;;;;;;;10.07;4.78;;;;;;;;;;5046406;28;20036;-82
2024/01/30 01:17:00;;;;;;;7.47;3.65;;;;;;;;;;5042011;28;20116;-82
2024/01/30 01:19:45;;;;;;;7.88;4.43;;;;;;;;;;5044752;28;20021;-83
2024/01/30 01:22:30;;;;;;;8.65;4.80;;;;;;;;;;5045228;28;20016;-83
2024/01/30 01:25:15;;;;;;;7.50;4.40;;;;;;;;;;5047871;28;20032;-81
2024/01/30 01:28:01;;;;;;;9.43;5.32;;;;;;;;;;5043326;28;20097;-82
2024/01/30 01:30:46;;;;;;;9.57;4.97;;;;;;;;;;5074025;28;20137;-82
2024/01/30 01:33:32;;;;;;;8.35;4.55;;;;;;;;;;5065102;28;20052;-81
2024/01/30 01:36:18;;;;;;;10.57;5.20;;;;;;;;;;5058068;28;20312;-81
2024/01/30 01:39:03;;;;;;;7.93;4.60;;;;;;;;;;5043001;28;20068;-81
2024/01/30 01:41:48;;;;;;;7.28;4.55;;;;;;;;;;5053614;28;20441;-81
2024/01/30 01:44:33;;;;;;;9.38;5.22;;;;;;;;;;5061945;28;20440;-83
2024/01/30 01:47:19;;;;;;;7.30;4.72;;;;;;;;;;5062339;28;20375;-82
2024/01/30 01:50:04;;;;;;;9.00;4.55;;;;;;;;;;5052299;28;20108;-82
2024/01/30 01:52:50;;;;;;;11.73;5.40;;;;;;;;;;5053475;28;20360;-82
2024/01/30 01:55:35;;;;;;;10.35;5.68;;;;;;;;;;5042192;28;20029;-83
2024/01/30 01:58:22;;;;;;;9.98;5.28;;;;;;;;;;5049502;28;20032;-82
2024/01/30 02:01:07;;;;;;;11.30;5.53;;;;;;;;;;5067292;28;20036;-83
2024/01/30 02:03:53;;;;;;;11.68;5.28;;;;;;;;;;5053158;28;20036;-83
2024/01/30 02:06:38;;;;;;;9.10;4.85;;;;;;;;;;5052561;28;20111;-82
2024/01/30 02:09:23;;;;;;;7.80;5.10;;;;;;;;;;5040878;28;20029;-83
2024/01/30 02:12:09;;;;;;;10.52;4.53;;;;;;;;;;5050839;28;20036;-83
2024/01/30 02:14:55;;;;;;;7.88;4.22;;;;;;;;;;5035271;28;20021;-82
2024/01/30 02:17:40;;;;;;;9.65;4.35;;;;;;;;;;5040793;28;20025;-82
2024/01/30 02:20:28;;;;;;;7.35;5.13;;;;;;;;;;5047789;28;20171;-83
2024/01/30 02:23:15;;;;;;;8.10;4.65;;;;;;;;;;5045123;28;20028;-82
2024/01/30 02:26:00;;;;;;;10.85;5.18;;;;;;;;;;5039805;28;20034;-82
2024/01/30 02:28:46;;;;;;;8.07;4.25;;;;;;;;;;5052969;28;20035;-82
2024/01/30 02:31:31;;;;;;;10.23;4.00;;;;;;;;;;5033639;28;20028;-82
2024/01/30 02:34:16;;;;;;;6.57;4.20;;;;;;;;;;5051562;28;20139;-82
2024/01/30 02:37:01;;;;;;;8.82;4.05;;;;;;;;;;5052263;28;20020;-82
2024/01/30 02:39:47;;;;;;;7.10;4.10;;;;;;;;;;5036016;28;20025;-82
2024/01/30 02:42:32;;;;;;;7.07;4.50;;;;;;;;;;5068718;28;20024;-82
2024/01/30 02:45:17;;;;;;;8.05;4.07;;;;;;;;;;5057816;28;20088;-82
2024/01/30 02:48:03;;;;;;;10.82;4.28;;;;;;;;;;5065239;28;20395;-82
2024/01/30 02:50:48;;;;;;;8.80;4.15;;;;;;;;;;5052638;28;20033;-81
2024/01/30 02:53:33;;;;;;;8.52;4.75;;;;;;;;;;5053143;28;20037;-82
2024/01/30 02:56:18;;;;;;;8.00;4.22;;;;;;;;;;5063876;28;20028;-82
2024/01/30 02:59:04;;;;;;;9.95;4.60;;;;;;;;;;5053513;28;20078;-81
2024/01/30 03:01:49;;;;;;;11.70;5.28;;;;;;;;;;5055721;28;20036;-80
2024/01/30 03:04:34;;;;;;;8.23;4.57;;;;;;;;;;5033587;28;20064;-84
2024/01/30 03:07:19;;;;;;;9.15;4.38;;;;;;;;;;5059197;28;20016;-83
2024/01/30 03:10:05;;;;;;;9.70;4.35;;;;;;;;;;5048876;28;20021;-84
2024/01/30 03:12:50;;;;;;;9.07;4.88;;;;;;;;;;5038373;28;20023;-83
2024/01/30 03:15:36;;;;;;;7.72;3.92;;;;;;;;;;5048385;28;20102;-83
2024/01/30 03:18:21;;;;;;;7.63;4.28;;;;;;;;;;5050842;28;20024;-83
2024/01/30 03:21:06;;;;;;;13.77;5.65;;;;;;;;;;5056118;28;20449;-82
2024/01/30 03:23:52;;;;;;;9.30;4.43;;;;;;;;;;5047581;28;20085;-83
2024/01/30 03:26:37;;;;;;;8.63;4.45;;;;;;;;;;5055841;28;20542;-83
2024/01/30 03:29:22;;;;;;;9.57;4.13;;;;;;;;;;5047541;28;20411;-82
2024/01/30 03:32:07;;;;;;;10.15;4.50;;;;;;;;;;5052671;28;20048;-82
2024/01/30 03:34:53;;;;;;;7.57;4.05;;;;;;;;;;5046443;28;20025;-82
2024/01/30 03:37:38;;;;;;;8.75;4.18;;;;;;;;;;5054332;28;20402;-82
2024/01/30 03:40:23;;;;;;;8.82;3.90;;;;;;;;;;5064974;28;20646;-83
2024/01/30 03:43:09;;;;;;;7.22;4.50;;;;;;;;;;5040464;28;20025;-82
2024/01/30 03:45:54;;;;;;;8.68;3.72;;;;;;;;;;5061344;28;20028;-83
2024/01/30 03:48:39;;;;;;;8.65;4.57;;;;;;;;;;5061606;28;20032;-83
2024/01/30 03:51:25;;;;;;;11.43;4.72;;;;;;;;;;5054140;28;20044;-83
2024/01/30 03:54:10;;;;;;;11.25;5.22;;;;;;;;;;5050549;28;20149;-82
2024/01/30 03:56:55;;;;;;;8.82;5.03;;;;;;;;;;5047988;28;20052;-82
2024/01/30 03:59:43;;;;;;;9.77;5.25;;;;;;;;;;5049057;28;20028;-81
2024/01/30 04:02:29;;;;;;;9.02;4.22;;;;;;;;;;5040966;28;20483;-81
2024/01/30 04:05:14;;;;;;;8.07;4.60;;;;;;;;;;5039534;28;20077;-81
2024/01/30 04:07:59;;;;;;;10.23;4.45;;;;;;;;;;5045244;28;20021;-82
2024/01/30 04:10:45;;;;;;;7.28;4.40;;;;;;;;;;5046313;28;20066;-82
2024/01/30 04:13:30;;;;;;;7.32;3.55;;;;;;;;;;5059691;28;20082;-82
2024/01/30 04:16:24;;;;;;;7.45;4.07;;;;;;;;;;5047343;28;20021;-82
2024/01/30 04:19:09;;;;;;;7.85;4.82;;;;;;;;;;5035712;28;20368;-82
2024/01/30 04:21:54;;;;;;;8.30;5.15;;;;;;;;;;5035200;28;20051;-84
2024/01/30 04:24:42;;;;;;;8.13;4.47;;;;;;;;;;5044811;28;20028;-83
2024/01/30 04:27:27;;;;;;;7.53;4.50;;;;;;;;;;5042200;28;20489;-82
2024/01/30 04:30:13;;;;;;;8.80;4.70;;;;;;;;;;5064720;28;20040;-83
2024/01/30 04:32:58;;;;;;;9.05;4.45;;;;;;;;;;5074096;28;20131;-82
2024/01/30 04:35:43;;;;;;;7.53;4.05;;;;;;;;;;5022974;28;20108;-81
2024/01/30 04:38:28;;;;;;;8.25;4.90;;;;;;;;;;5035733;28;20040;-82
2024/01/30 04:41:13;;;;;;;7.95;4.78;;;;;;;;;;5043504;28;20020;-81
2024/01/30 04:43:59;;;;;;;11.60;5.45;;;;;;;;;;5037019;28;20024;-81
2024/01/30 04:46:44;;;;;;;9.82;4.45;;;;;;;;;;5037472;28;20044;-82
2024/01/30 04:49:29;;;;;;;12.32;5.45;;;;;;;;;;5051527;28;20058;-82
2024/01/30 04:52:14;;;;;;;8.10;4.40;;;;;;;;;;5055496;28;20435;-82
2024/01/30 04:55:00;;;;;;;10.63;4.85;;;;;;;;;;5045450;28;20048;-82
2024/01/30 04:57:45;;;;;;;9.88;5.03;;;;;;;;;;5045040;28;20027;-82
2024/01/30 05:00:30;;;;;;;8.52;5.35;;;;;;;;;;5047772;28;20104;-83
2024/01/30 05:03:16;;;;;;;11.13;4.85;;;;;;;;;;5045275;28;20019;-82
2024/01/30 05:06:01;;;;;;;11.93;5.00;;;;;;;;;;5044656;28;20169;-81
2024/01/30 05:08:46;;;;;;;11.60;5.75;;;;;;;;;;5040628;28;20032;-82
2024/01/30 05:11:36;;;;;;;10.50;5.57;;;;;;;;;;5044472;28;20407;-82
2024/01/30 05:14:21;;;;;;;9.40;4.93;;;;;;;;;;5044261;28;20032;-83
2024/01/30 05:17:09;;;;;;;10.70;5.50;;;;;;;;;;5047940;28;20024;-82
2024/01/30 05:19:54;;;;;;;11.23;5.15;;;;;;;;;;5047604;28;20032;-82
2024/01/30 05:22:44;;;;;;;9.13;4.85;;;;;;;;;;5047934;28;20028;-82
2024/01/30 05:25:29;;;;;;;12.40;5.38;;;;;;;;;;5047348;28;20028;-82
2024/01/30 05:28:15;;;;;;;9.57;5.75;;;;;;;;;;5047246;28;20058;-81
2024/01/30 05:31:00;;;;;;;10.00;5.55;;;;;;;;;;5032981;28;20123;-81
2024/01/30 05:33:46;;;;;;;11.63;5.20;;;;;;;;;;5044330;28;20036;-82
2024/01/30 05:36:31;;;;;;;11.30;5.80;;;;;;;;;;5048284;28;20036;-82
2024/01/30 05:39:16;;;;;;;9.63;5.28;;;;;;;;;;5035339;28;20040;-82
2024/01/30 05:42:02;;;;;;;8.32;5.43;;;;;;;;;;5031871;28;20063;-83
2024/01/30 05:44:47;;;;;;;10.07;5.53;;;;;;;;;;5042798;28;20395;-82
2024/01/30 05:47:32;;;;;;;13.27;6.20;;;;;;;;;;5042684;28;20083;-81
2024/01/30 05:50:17;;;;;;;9.45;5.60;;;;;;;;;;5042588;28;20112;-82
2024/01/30 05:53:03;;;;;;;11.85;5.60;;;;;;;;;;5048474;28;20030;-81
2024/01/30 05:55:48;;;;;;;10.73;4.95;;;;;;;;;;5039649;28;20032;-83
2024/01/30 05:58:33;;;;;;;12.27;5.85;;;;;;;;;;5063795;28;20031;-83
2024/01/30 06:01:18;;;;;;;9.05;5.68;;;;;;;;;;5047931;28;20052;-83
2024/01/30 06:04:03;;;;;;;10.60;5.55;;;;;;;;;;5048707;28;20471;-81
2024/01/30 06:06:49;;;;;;;13.43;6.68;;;;;;;;;;5045482;28;20038;-80
2024/01/30 06:09:34;;;;;;;13.50;6.30;;;;;;;;;;5045355;28;20032;-82
2024/01/30 06:12:19;;;;;;;11.43;5.57;;;;;;;;;;5050721;28;20020;-82
2024/01/30 06:15:05;;;;;;;11.80;6.28;;;;;;;;;;5048951;28;20025;-82
2024/01/30 06:17:50;;;;;;;15.23;6.22;;;;;;;;;;5057379;28;20040;-82
2024/01/30 06:20:36;;;;;;;14.30;6.47;;;;;;;;;;5047123;28;20059;-82
2024/01/30 06:23:21;;;;;;;11.80;6.30;;;;;;;;;;5045371;28;20036;-82
2024/01/30 06:26:06;;;;;;;13.13;7.00;;;;;;;;;;5052304;28;20025;-81
2024/01/30 06:28:52;;;;;;;12.32;5.82;;;;;;;;;;5046196;28;20644;-80
2024/01/30 06:31:41;;;;;;;9.90;5.70;;;;;;;;;;5049659;28;20058;-81
2024/01/30 06:34:26;;;;;;;12.18;6.18;;;;;;;;;;5050170;28;20425;-81
2024/01/30 06:37:12;;;;;;;8.70;5.22;;;;;;;;;;5047765;28;20709;-81
2024/01/30 06:39:57;;;;;;;10.73;5.30;;;;;;;;;;5036484;28;20107;-80
2024/01/30 06:42:42;;;;;;;7.82;4.85;;;;;;;;;;5030079;28;20025;-80
2024/01/30 06:45:27;;;;;;;11.77;5.60;;;;;;;;;;5029588;28;20104;-81
2024/01/30 06:48:12;;;;;;;11.75;5.85;;;;;;;;;;5036053;28;20033;-80
2024/01/30 06:50:58;;;;;;;10.13;6.28;;;;;;;;;;5045531;28;20063;-83
2024/01/30 06:53:43;;;;;;;11.30;6.13;;;;;;;;;;5043883;28;20029;-82
2024/01/30 06:56:28;;;;;;;15.50;7.10;;;;;;;;;;5047902;28;20422;-80
2024/01/30 06:59:14;;;;;;;9.90;5.72;;;;;;;;;;5053725;28;20021;-82
2024/01/30 07:01:59;;;;;;;10.68;5.97;;;;;;;;;;5044623;28;20043;-81
2024/01/30 07:04:44;;;;;;;10.27;5.93;;;;;;;;;;5045237;28;20487;-81
2024/01/30 07:07:29;;;;;;;12.52;6.35;;;;;;;;;;5049768;28;20036;-82
2024/01/30 07:10:15;;;;;;;12.00;5.80;;;;;;;;;;5051375;28;20024;-83
2024/01/30 07:13:00;;;;;;;12.88;6.05;;;;;;;;;;5034184;28;20024;-83
2024/01/30 07:15:46;;;;;;;13.82;6.13;;;;;;;;;;5032627;28;20525;-83
2024/01/30 07:18:31;;;;;;;10.02;6.03;;;;;;;;;;5037667;28;20072;-80
2024/01/30 07:21:17;;;;;;;15.80;6.18;;;;;;;;;;5037677;28;20027;-81
2024/01/30 07:24:02;;;;;;;19.00;5.57;;;;;;;;;;5043435;28;20029;-84
2024/01/30 07:26:47;;;;;;;11.75;5.90;;;;;;;;;;5039405;28;20025;-83
2024/01/30 07:29:32;;;;;;;11.98;6.22;;;;;;;;;;5038795;28;20068;-84
2024/01/30 07:32:18;;;;;;;12.60;5.80;;;;;;;;;;5038175;28;20037;-84
2024/01/30 07:35:04;;;;;;;10.68;5.72;;;;;;;;;;5035086;28;20040;-84
2024/01/30 07:37:49;;;;;;;13.88;7.03;;;;;;;;;;5032648;28;20035;-83
2024/01/30 07:40:34;;;;;;;13.00;5.93;;;;;;;;;;5038664;28;20097;-84
2024/01/30 07:43:20;;;;;;;15.40;6.10;;;;;;;;;;5030887;28;20103;-84
2024/01/30 07:46:06;;;;;;;15.48;6.20;;;;;;;;;;5048628;28;20552;-83
2024/01/30 07:48:51;;;;;;;10.05;5.53;;;;;;;;;;5036571;28;20046;-81
2024/01/30 07:51:36;;;;;;;11.00;6.50;;;;;;;;;;5039711;28;20083;-81
2024/01/30 07:54:22;;;;;;;11.50;6.38;;;;;;;;;;5045409;28;20036;-79
2024/01/30 07:57:07;;;;;;;11.20;6.55;;;;;;;;;;5037983;28;20016;-82
2024/01/30 07:59:52;;;;;;;9.88;5.45;;;;;;;;;;5031341;28;20033;-90
2024/01/30 08:02:37;;;;;;;11.90;6.15;;;;;;;;;;5033445;28;20032;-85
2024/01/30 08:05:23;;;;;;;11.77;7.32;;;;;;;;;;5035215;28;20040;-83
2024/01/30 08:08:08;;;;;;;14.98;6.38;;;;;;;;;;5047088;28;20308;-85
2024/01/30 08:10:53;;;;;;;12.90;6.50;;;;;;;;;;5053311;28;20108;-86
2024/01/30 08:13:38;;;;;;;11.88;6.15;;;;;;;;;;5057146;28;20036;-83
2024/01/30 08:16:24;;;;;;;11.30;5.55;;;;;;;;;;5055251;28;20016;-84
2024/01/30 08:19:09;;;;;;;11.43;5.85;;;;;;;;;;5052377;28;20489;-84
2024/01/30 08:21:55;;;;;;;14.25;6.50;;;;;;;;;;5051481;28;20012;-84
2024/01/30 08:24:40;;;;;;;14.20;6.30;;;;;;;;;;5057585;28;20029;-86
2024/01/30 08:27:28;;;;;;;12.60;6.38;;;;;;;;;;5037719;28;20055;-85
2024/01/30 08:30:13;;;;;;;16.67;7.38;;;;;;;;;;5043794;28;20023;-85
2024/01/30 08:32:59;;;;;;;12.93;6.60;;;;;;;;;;5034825;28;20048;-83
2024/01/30 08:35:44;;;;;;;13.60;7.38;;;;;;;;;;5040181;28;20036;-83
2024/01/30 08:38:29;;;;;;;12.82;7.30;;;;;;;;;;5040363;28;20089;-85
2024/01/30 08:41:14;;;;;;;18.33;7.30;;;;;;;;;;5020060;28;20024;-84
2024/01/30 08:43:59;;;;;;;15.43;7.10;;;;;;;;;;5035209;28;20025;-85
2024/01/30 08:46:45;;;;;;;13.93;7.20;;;;;;;;;;5037152;28;20054;-82
2024/01/30 08:49:31;;;;;;;12.35;6.88;;;;;;;;;;5035646;28;20495;-86
2024/01/30 08:52:16;;;;;;;13.80;7.32;;;;;;;;;;5042097;28;20076;-84
2024/01/30 08:55:02;;;;;;;12.25;7.47;;;;;;;;;;5039650;28;20029;-85
2024/01/30 08:57:47;;;;;;;15.38;7.38;;;;;;;;;;5042322;28;20025;-83
2024/01/30 09:00:33;;;;;;;13.48;7.07;;;;;;;;;;5035713;28;20149;-84
2024/01/30 09:03:18;;;;;;;22.30;8.45;;;;;;;;;;5032867;28;20028;-87
2024/01/30 09:06:03;;;;;;;17.83;8.20;;;;;;;;;;5030619;28;20957;-86
2024/01/30 09:08:49;;;;;;;13.98;7.82;;;;;;;;;;5038553;28;20085;-84
2024/01/30 09:11:34;;;;;;;15.80;8.70;;;;;;;;;;5035747;28;20045;-83
2024/01/30 09:14:20;;;;;;;18.50;7.25;;;;;;;;;;5041861;28;20032;-85
2024/01/30 09:17:05;;;;;;;14.02;6.97;;;;;;;;;;5040551;28;20033;-86
2024/01/30 09:19:50;;;;;;;14.50;6.72;;;;;;;;;;5041393;28;20044;-88
2024/01/30 09:22:35;;;;;;;14.68;8.10;;;;;;;;;;5039231;28;20028;-84
2024/01/30 09:25:20;;;;;;;14.27;7.72;;;;;;;;;;5040346;28;20085;-86
2024/01/30 09:28:06;;;;;;;11.75;6.97;;;;;;;;;;5038445;28;20051;-86
2024/01/30 09:30:52;;;;;;;9.80;6.78;;;;;;;;;;5043512;28;20437;-88
2024/01/30 09:33:37;;;;;;;14.40;7.20;;;;;;;;;;5043625;28;20069;-86
2024/01/30 09:36:22;;;;;;;14.70;7.10;;;;;;;;;;5035732;28;20036;-86
2024/01/30 09:39:08;;;;;;;15.10;7.65;;;;;;;;;;5036522;28;20028;-84
2024/01/30 09:42:00;;;;;;;15.80;8.18;;;;;;;;;;5038141;28;20093;-83
2024/01/30 09:44:46;;;;;;;13.32;7.18;;;;;;;;;;5040793;28;20037;-83
2024/01/30 09:47:39;;;;;;;14.05;7.57;;;;;;;;;;5046293;28;20397;-84
2024/01/30 09:50:24;;;;;;;14.32;6.00;;;;;;;;;;5040597;28;20031;-84
2024/01/30 09:53:11;;;;;;;15.70;6.53;;;;;;;;;;5043877;28;20031;-82
2024/01/30 09:55:56;;;;;;;12.07;6.15;;;;;;;;;;5042958;28;20032;-83
2024/01/30 09:58:42;;;;;;;12.27;6.32;;;;;;;;;;5047960;28;20103;-84
2024/01/30 10:01:27;;;;;;;13.32;6.43;;;;;;;;;;5040099;28;20473;-84
2024/01/30 10:04:12;;;;;;;12.90;6.45;;;;;;;;;;5038313;28;20067;-83
2024/01/30 10:06:59;;;;;;;9.10;5.60;;;;;;;;;;5041750;28;20021;-84
2024/01/30 10:09:45;;;;;;;11.90;6.35;;;;;;;;;;5033893;28;20132;-84
2024/01/30 10:12:30;;;;;;;14.10;5.78;;;;;;;;;;5039517;28;20020;-82
2024/01/30 10:15:17;;;;;;;12.38;5.70;;;;;;;;;;5037860;28;20044;-82
2024/01/30 10:18:02;;;;;;;11.57;6.07;;;;;;;;;;5046385;28;20020;-82
2024/01/30 10:20:47;;;;;;;11.63;7.15;;;;;;;;;;5044926;28;20432;-83
2024/01/30 10:23:33;;;;;;;12.48;6.13;;;;;;;;;;5045749;28;20159;-82
2024/01/30 10:26:18;;;;;;;10.73;5.80;;;;;;;;;;5037181;28;20106;-83
2024/01/30 10:29:04;;;;;;;11.77;6.95;;;;;;;;;;5037590;28;20036;-82
2024/01/30 10:32:22;;;;;;;14.02;8.05;;;;;;;;;;5043640;28;20036;-82
2024/01/30 10:35:08;;;;;;;15.65;7.88;;;;;;;;;;5014398;28;20045;-81
2024/01/30 10:37:56;;;;;;;16.13;8.52;;;;;;;;;;5036508;28;20375;-79
2024/01/30 10:40:43;;;;;;;16.60;8.32;;;;;;;;;;5033093;28;20265;-82
2024/01/30 10:43:33;;;;;;;16.10;7.85;;;;;;;;;;5026374;28;20035;-82
2024/01/30 10:46:22;;;;;;;13.90;8.35;;;;;;;;;;5035000;28;20081;-80
2024/01/30 10:49:07;;;;;;;16.00;8.23;;;;;;;;;;5037920;28;20446;-83
2024/01/30 10:51:54;;;;;;;20.30;10.13;;;;;;;;;;5046513;28;20056;-83
2024/01/30 10:54:40;;;;;;;16.33;8.93;;;;;;;;;;5028860;28;20045;-83
2024/01/30 10:57:26;;;;;;;18.27;9.38;;;;;;;;;;5031239;28;20435;-84
2024/01/30 11:00:13;;;;;;;15.55;8.90;;;;;;;;;;5027842;28;20105;-84
2024/01/30 11:02:58;;;;;;;16.83;10.20;;;;;;;;;;5027346;28;20040;-82
2024/01/30 11:05:48;;;;;;;16.33;10.05;;;;;;;;;;5027349;28;20047;-83
2024/01/30 11:08:33;;;;;;;;;;;;;;;;;;5037032;28;20340;-82
2024/01/30 11:11:18;;;;;;;20.83;9.35;;;;;;;;;;5042365;28;19908;-85
2024/01/30 11:14:04;;;;;;;18.30;9.80;;;;;;;;;;5044647;28;20167;-84
2024/01/30 11:16:49;;;;;;;21.55;11.00;;;;;;;;;;5036513;28;20124;-84
2024/01/30 11:19:35;;;;;;;16.45;10.07;;;;;;;;;;5031089;28;20271;-83
2024/01/30 11:22:20;;;;;;;17.80;10.70;;;;;;;;;;5043540;28;20101;-84
2024/01/30 11:25:06;;;;;;;18.65;10.00;;;;;;;;;;5025119;28;20021;-85
2024/01/30 11:27:54;;;;;;;17.77;10.98;;;;;;;;;;5041065;28;20429;-84
2024/01/30 11:30:40;;;;;;;15.33;10.13;;;;;;;;;;5042774;28;20049;-84
2024/01/30 11:33:32;;;;;;;19.15;10.35;;;;;;;;;;5032748;28;20434;-85
2024/01/30 11:36:19;;;;;;;14.88;8.70;;;;;;;;;;5021179;28;20033;-84
2024/01/30 11:39:05;;;;;;;14.15;7.88;;;;;;;;;;5019873;28;20029;-83
2024/01/30 11:41:52;;;;;;;22.08;9.13;;;;;;;;;;5015642;28;20026;-85
2024/01/30 11:44:37;;;;;;;12.68;5.63;;;;;;;;;;5022983;28;20040;-83
2024/01/30 11:47:22;;;;;;;7.97;4.20;;;;;;;;;;5022461;28;20630;-84
2024/01/30 11:50:10;;;;;;;6.95;4.18;;;;;;;;;;5021791;28;20079;-84
2024/01/30 11:52:55;;;;;;;10.85;5.18;;;;;;;;;;5027416;28;20398;-82
2024/01/30 11:55:41;;;;;;;8.65;4.05;;;;;;;;;;5020268;28;20026;-83
2024/01/30 11:58:26;;;;;;;5.28;3.72;;;;;;;;;;5028734;28;20108;-84
2024/01/30 12:01:11;;;;;;;7.63;4.85;;;;;;;;;;5014223;28;20021;-84
2024/01/30 12:03:57;;;;;;;6.97;3.88;;;;;;;;;;5013251;28;20490;-85
2024/01/30 12:06:42;;;;;;;7.88;4.25;;;;;;;;;;5037550;28;20065;-85
2024/01/30 12:09:27;;;;;;;12.00;6.10;;;;;;;;;;5003868;28;20029;-83
2024/01/30 12:12:14;;;;;;;17.17;8.82;;;;;;;;;;5026681;28;20032;-84
2024/01/30 12:15:00;;;;;;;15.38;9.52;;;;;;;;;;5008956;28;20412;-82
2024/01/30 12:17:45;;;;;;;17.30;8.98;;;;;;;;;;5014838;28;20032;-83
2024/01/30 12:20:30;;;;;;;18.35;9.95;;;;;;;;;;5015024;28;20510;-82
2024/01/30 12:23:15;;;;;;;18.42;9.48;;;;;;;;;;5020120;28;20025;-84
2024/01/30 12:26:03;;;;;;;18.95;11.50;;;;;;;;;;5014870;28;20033;-82
2024/01/30 12:28:49;;;;;;;20.92;9.45;;;;;;;;;;5015268;28;20034;-82
2024/01/30 12:31:35;;;;;;;16.15;8.40;;;;;;;;;;5025099;28;20033;-83
2024/01/30 12:34:20;;;;;;;17.58;9.65;;;;;;;;;;5030796;28;20052;-83
2024/01/30 12:37:06;;;;;;;18.63;9.88;;;;;;;;;;5025032;28;20110;-83
2024/01/30 12:39:53;;;;;;;18.75;8.90;;;;;;;;;;5028592;28;20061;-82
2024/01/30 12:42:39;;;;;;;18.42;8.60;;;;;;;;;;5014475;28;20032;-85
2024/01/30 12:45:25;;;;;;;20.40;10.48;;;;;;;;;;5026076;28;20036;-85
2024/01/30 12:48:10;;;;;;;17.20;9.68;;;;;;;;;;5018163;28;20051;-85
2024/01/30 12:50:56;;;;;;;18.10;9.50;;;;;;;;;;5013018;28;20379;-84
2024/01/30 12:53:41;;;;;;;15.98;7.90;;;;;;;;;;5016228;28;20112;-83
2024/01/30 12:56:26;;;;;;;18.23;7.38;;;;;;;;;;5032909;28;20113;-85
2024/01/30 12:59:11;;;;;;;18.00;8.23;;;;;;;;;;5022248;28;20114;-84
2024/01/30 13:01:58;;;;;;;16.00;7.85;;;;;;;;;;5020154;28;20111;-83
2024/01/30 13:04:44;;;;;;;18.95;8.88;;;;;;;;;;5022369;28;20051;-85
2024/01/30 13:07:30;;;;;;;18.50;10.10;;;;;;;;;;5022150;28;20036;-84
2024/01/30 13:10:15;;;;;;;16.70;9.93;;;;;;;;;;5018861;28;20029;-84
2024/01/30 13:13:00;;;;;;;20.35;10.38;;;;;;;;;;5015682;28;20089;-83
2024/01/30 13:15:46;;;;;;;17.73;10.07;;;;;;;;;;5018385;28;20068;-86
2024/01/30 13:18:31;;;;;;;19.65;10.45;;;;;;;;;;5020678;28;20025;-83
2024/01/30 13:21:17;;;;;;;17.42;9.23;;;;;;;;;;5018686;28;20462;-84
2024/01/30 13:24:02;;;;;;;17.08;10.13;;;;;;;;;;5026901;28;20081;-83
2024/01/30 13:26:48;;;;;;;17.45;10.32;;;;;;;;;;5014556;28;20171;-82
2024/01/30 13:29:33;;;;;;;20.33;9.63;;;;;;;;;;5026018;28;20025;-85
2024/01/30 13:32:18;;;;;;;18.08;9.27;;;;;;;;;;5028131;28;20129;-83
2024/01/30 13:35:04;;;;;;;16.08;8.40;;;;;;;;;;5043686;28;20021;-84
2024/01/30 13:37:49;;;;;;;15.10;7.97;;;;;;;;;;5039006;28;20032;-84
2024/01/30 13:40:34;;;;;;;20.92;8.23;;;;;;;;;;5044964;28;20017;-83
2024/01/30 13:43:20;;;;;;;16.13;8.52;;;;;;;;;;5037972;28;20031;-83
2024/01/30 13:46:05;;;;;;;14.55;8.43;;;;;;;;;;5040996;28;20039;-84
2024/01/30 13:48:50;;;;;;;23.05;8.43;;;;;;;;;;5045038;28;20036;-86
2024/01/30 13:51:36;;;;;;;14.23;8.30;;;;;;;;;;5036864;28;20032;-83
2024/01/30 13:54:21;;;;;;;18.88;8.63;;;;;;;;;;5038605;28;20040;-83
2024/01/30 13:57:07;;;;;;;18.70;7.88;;;;;;;;;;5049781;28;20103;-84
2024/01/30 13:59:53;;;;;;;15.18;7.38;;;;;;;;;;5040710;28;20024;-82
2024/01/30 14:02:38;;;;;;;15.18;6.93;;;;;;;;;;5048733;28;20032;-83
2024/01/30 14:05:24;;;;;;;19.58;7.55;;;;;;;;;;5046826;28;20028;-85
2024/01/30 14:08:09;;;;;;;16.45;8.23;;;;;;;;;;5043959;28;20059;-84
2024/01/30 14:10:56;;;;;;;12.13;6.30;;;;;;;;;;5038799;28;20029;-84
2024/01/30 14:13:41;;;;;;;16.52;7.20;;;;;;;;;;5035940;28;20404;-84
2024/01/30 14:16:26;;;;;;;15.25;7.88;;;;;;;;;;5036514;28;20430;-83
2024/01/30 14:19:15;;;;;;;14.75;7.72;;;;;;;;;;5035885;28;20021;-84
2024/01/30 14:22:00;;;;;;;13.30;7.18;;;;;;;;;;5033850;28;20109;-84
2024/01/30 14:24:45;;;;;;;15.55;7.82;;;;;;;;;;5042292;28;20025;-83
2024/01/30 14:27:31;;;;;;;18.88;8.48;;;;;;;;;;5042182;28;20021;-83
2024/01/30 14:30:16;;;;;;;13.75;7.60;;;;;;;;;;5045932;28;20068;-83
2024/01/30 14:33:02;;;;;;;16.23;7.72;;;;;;;;;;5044826;28;20178;-85
2024/01/30 14:35:47;;;;;;;13.45;8.57;;;;;;;;;;5034608;28;20483;-85
2024/01/30 14:38:32;;;;;;;16.45;8.40;;;;;;;;;;5038504;28;20509;-84
2024/01/30 14:41:18;;;;;;;16.70;7.85;;;;;;;;;;5043188;28;20060;-83
2024/01/30 14:44:05;;;;;;;20.65;8.45;;;;;;;;;;5035028;28;20025;-84
2024/01/30 14:46:50;;;;;;;14.80;8.90;;;;;;;;;;5042888;28;20093;-83
2024/01/30 14:49:35;;;;;;;17.20;8.77;;;;;;;;;;5035020;28;20025;-83
2024/01/30 14:52:21;;;;;;;17.65;7.93;;;;;;;;;;5039994;28;20393;-82
2024/01/30 14:55:07;;;;;;;21.92;9.52;;;;;;;;;;5039448;28;20030;-82
2024/01/30 14:57:52;;;;;;;14.32;7.95;;;;;;;;;;5050439;28;20267;-81
2024/01/30 15:00:38;;;;;;;18.08;9.05;;;;;;;;;;5043139;28;20021;-82
2024/01/30 15:03:23;;;;;;;22.42;9.45;;;;;;;;;;5036080;28;20009;-82
2024/01/30 15:06:09;;;;;;;20.25;9.02;;;;;;;;;;5044664;28;20086;-83
2024/01/30 15:08:54;;;;;;;20.73;9.85;;;;;;;;;;5037327;28;20032;-83
2024/01/30 15:11:39;;;;;;;18.10;9.38;;;;;;;;;;5048676;28;20036;-84
2024/01/30 15:14:24;;;;;;;15.27;9.30;;;;;;;;;;5049102;28;20024;-83
2024/01/30 15:17:10;;;;;;;20.55;9.25;;;;;;;;;;5036583;28;20029;-84
2024/01/30 15:20:00;;;;;;;17.67;8.77;;;;;;;;;;5028902;28;20037;-83
2024/01/30 15:22:45;;;;;;;23.95;10.10;;;;;;;;;;5036610;28;20378;-83
2024/01/30 15:25:31;;;;;;;16.10;9.23;;;;;;;;;;5036127;28;20063;-84
2024/01/30 15:28:17;;;;;;;17.30;9.63;;;;;;;;;;5033052;28;20548;-83
2024/01/30 15:31:02;;;;;;;16.98;9.70;;;;;;;;;;5030613;28;20594;-84
2024/01/30 15:33:47;;;;;;;18.55;9.57;;;;;;;;;;5032736;28;20055;-83
2024/01/30 15:36:33;;;;;;;19.60;10.60;;;;;;;;;;5034007;28;20025;-84
2024/01/30 15:39:18;;;;;;;16.02;8.75;;;;;;;;;;5043090;28;20028;-84
2024/01/30 15:42:03;;;;;;;19.35;8.88;;;;;;;;;;5039346;28;20033;-83
2024/01/30 15:44:49;;;;;;;19.00;9.98;;;;;;;;;;5046725;28;20553;-84
2024/01/30 15:47:34;;;;;;;19.13;9.85;;;;;;;;;;5038537;28;20534;-84
2024/01/30 15:50:20;;;;;;;21.60;10.02;;;;;;;;;;5043687;28;20064;-85
2024/01/30 15:53:05;;;;;;;19.23;9.68;;;;;;;;;;5038277;28;20035;-84
2024/01/30 15:55:50;;;;;;;20.77;8.73;;;;;;;;;;5053142;28;20024;-85
2024/01/30 15:58:35;;;;;;;17.92;9.57;;;;;;;;;;5046234;28;20090;-82
2024/01/30 16:01:21;;;;;;;20.17;9.93;;;;;;;;;;5044215;28;20017;-81
2024/01/30 16:04:06;;;;;;;15.77;9.10;;;;;;;;;;5040597;28;20020;-81
2024/01/30 16:06:51;;;;;;;17.75;9.57;;;;;;;;;;5027786;28;20111;-82
2024/01/30 16:09:36;;;;;;;22.35;10.05;;;;;;;;;;5037686;28;20040;-81
2024/01/30 16:12:21;;;;;;;19.30;10.40;;;;;;;;;;5036245;28;20060;-82
2024/01/30 16:15:07;;;;;;;18.75;10.00;;;;;;;;;;5046783;28;20058;-82
2024/01/30 16:17:54;;;;;;;17.35;9.27;;;;;;;;;;5034956;28;20032;-82
2024/01/30 16:20:41;;;;;;;25.92;9.48;;;;;;;;;;5039765;28;20075;-82
2024/01/30 16:23:29;;;;;;;17.20;9.57;;;;;;;;;;5057116;28;20096;-82